createdAt,value
2023-02-23T00:02:50.489Z,9.08
2023-02-23T00:07:52.697Z,8.99
2023-02-23T00:12:54.437Z,9.01
2023-02-23T00:17:57.545Z,9.01
2023-02-23T00:22:59.314Z,9.01
2023-02-23T00:28:01.047Z,8.91
2023-02-23T00:33:02.934Z,8.85
2023-02-23T00:38:04.697Z,8.90
2023-02-23T00:43:06.724Z,8.87
2023-02-23T00:48:10.892Z,8.77
2023-02-23T00:53:14.116Z,8.76
2023-02-23T00:58:17.380Z,8.77
2023-02-23T01:03:19.321Z,8.75
2023-02-23T01:08:24.607Z,8.74
2023-02-23T01:13:28.152Z,8.76
2023-02-23T01:18:29.914Z,8.76
2023-02-23T01:23:32.723Z,8.76
2023-02-23T01:28:34.605Z,8.76
2023-02-23T01:33:37.435Z,8.76
2023-02-23T01:38:40.169Z,8.71
2023-02-23T01:44:13.856Z,8.73
2023-02-23T01:49:25.650Z,8.79
2023-02-23T01:54:31.984Z,8.80
2023-02-23T01:59:39.899Z,8.80
2023-02-23T02:04:46.324Z,8.83
2023-02-23T02:10:09.712Z,8.83
2023-02-23T02:15:19.273Z,8.88
2023-02-23T02:20:34.311Z,8.96
2023-02-23T02:25:47.910Z,9.02
2023-02-23T02:31:22.154Z,9.05
2023-02-23T02:36:52.005Z,9.06
2023-02-23T02:42:10.859Z,9.05
2023-02-23T02:47:19.255Z,9.08
2023-02-23T02:52:28.795Z,9.07
2023-02-23T02:57:33.158Z,9.07
2023-02-23T03:02:57.920Z,9.09
2023-02-23T03:08:24.180Z,9.05
2023-02-23T03:14:04.010Z,9.08
2023-02-23T03:19:49.878Z,9.12
2023-02-23T03:25:23.615Z,9.16
2023-02-23T03:30:48.008Z,9.15
2023-02-23T03:36:18.651Z,9.16
2023-02-23T03:41:42.375Z,9.22
2023-02-23T03:47:05.901Z,9.21
2023-02-23T03:52:35.143Z,9.23
2023-02-23T03:57:58.923Z,9.23
2023-02-23T04:03:22.542Z,9.24
2023-02-23T04:08:49.458Z,9.25
2023-02-23T04:13:57.207Z,9.23
2023-02-23T04:18:59.080Z,9.23
2023-02-23T04:24:00.878Z,9.27
2023-02-23T04:29:02.745Z,9.29
2023-02-23T04:34:04.981Z,9.29
2023-02-23T04:39:06.732Z,9.32
2023-02-23T04:44:08.541Z,9.36
2023-02-23T04:49:10.515Z,9.36
2023-02-23T04:54:12.292Z,9.37
2023-02-23T04:59:14.080Z,9.35
2023-02-23T05:04:15.928Z,9.28
2023-02-23T05:09:17.693Z,9.27
2023-02-23T05:14:19.477Z,9.18
2023-02-23T05:19:22.060Z,9.18
2023-02-23T05:24:23.884Z,9.16
2023-02-23T05:29:25.677Z,9.11
2023-02-23T05:34:27.507Z,8.93
2023-02-23T05:39:29.288Z,8.88
2023-02-23T05:44:31.070Z,8.75
2023-02-23T05:49:32.847Z,8.65
2023-02-23T05:54:34.813Z,8.58
2023-02-23T05:59:36.606Z,8.58
2023-02-23T06:04:38.427Z,8.47
2023-02-23T06:09:42.897Z,8.45
2023-02-23T06:14:46.072Z,8.52
2023-02-23T06:19:47.827Z,8.52
2023-02-23T06:24:49.754Z,8.60
2023-02-23T06:29:51.646Z,8.70
2023-02-23T06:34:53.390Z,8.77
2023-02-23T06:39:55.175Z,8.80
2023-02-23T06:44:56.943Z,8.85
2023-02-23T06:50:00.071Z,8.88
2023-02-23T06:55:01.857Z,8.86
2023-02-23T07:00:04.870Z,8.89
2023-02-23T07:05:06.869Z,8.98
2023-02-23T07:10:09.369Z,9.10
2023-02-23T07:15:11.808Z,9.20
2023-02-23T07:20:13.750Z,9.33
2023-02-23T07:25:15.566Z,9.46
2023-02-23T07:35:38.607Z,9.75
2023-02-23T07:40:40.676Z,9.94
2023-02-23T07:45:45.507Z,10.00
2023-02-23T07:50:48.787Z,10.12
2023-02-23T07:56:04.242Z,10.17
2023-02-23T08:01:06.358Z,10.27
2023-02-23T08:06:08.234Z,10.39
2023-02-23T08:11:10.035Z,10.53
2023-02-23T08:16:12.640Z,10.55
2023-02-23T08:21:14.390Z,10.59
2023-02-23T08:26:16.297Z,10.63
2023-02-23T08:31:21.568Z,10.70
2023-02-23T08:36:23.741Z,10.72
2023-02-23T08:41:26.295Z,10.79
2023-02-23T08:46:28.155Z,10.80
2023-02-23T08:51:30.019Z,10.79
2023-02-23T08:56:31.911Z,10.89
2023-02-23T09:01:33.932Z,10.97
2023-02-23T09:06:37.262Z,11.05
2023-02-23T09:11:39.071Z,11.15
2023-02-23T09:16:40.819Z,11.26
2023-02-23T09:21:44.221Z,11.38
2023-02-23T09:26:46.064Z,11.46
2023-02-23T09:31:48.003Z,11.14
2023-02-23T09:36:49.925Z,11.44
2023-02-23T09:41:51.901Z,11.74
2023-02-23T09:47:21.349Z,11.95
2023-02-23T09:52:35.620Z,12.13
2023-02-23T09:57:40.361Z,12.31
2023-02-23T10:03:08.424Z,12.51
2023-02-23T10:08:30.341Z,12.65
2023-02-23T10:13:50.645Z,12.75
2023-02-23T10:19:13.120Z,12.96
2023-02-23T10:24:56.392Z,13.14
2023-02-23T10:30:02.905Z,13.42
2023-02-23T10:35:15.228Z,13.60
2023-02-23T10:40:28.946Z,13.78
2023-02-23T10:45:45.636Z,14.10
2023-02-23T10:50:50.041Z,14.35
2023-02-23T10:56:17.014Z,14.61
2023-02-23T11:02:00.356Z,14.80
2023-02-23T11:07:16.425Z,15.03
2023-02-23T11:12:26.399Z,15.21
2023-02-23T11:17:30.191Z,15.43
2023-02-23T11:22:36.191Z,15.64
2023-02-23T11:27:38.020Z,15.90
2023-02-23T11:32:43.310Z,16.10
2023-02-23T11:37:45.195Z,16.39
2023-02-23T11:42:54.372Z,16.71
2023-02-23T11:47:59.461Z,16.93
2023-02-23T11:53:05.962Z,16.94
2023-02-23T11:58:19.349Z,17.00
2023-02-23T12:03:24.753Z,17.03
2023-02-23T12:08:31.415Z,17.00
2023-02-23T12:13:39.839Z,17.02
2023-02-23T12:19:08.644Z,16.96
2023-02-23T12:24:32.155Z,16.88
2023-02-23T12:35:18.327Z,17.02
2023-02-23T12:40:30.484Z,17.09
2023-02-23T12:45:46.130Z,17.12
2023-02-23T12:50:54.434Z,17.12
2023-02-23T12:55:59.131Z,17.10
2023-02-23T13:01:05.189Z,17.22
2023-02-23T13:06:25.898Z,17.36
2023-02-23T13:11:46.369Z,17.41
2023-02-23T13:16:54.978Z,17.48
2023-02-23T13:22:11.773Z,17.60
2023-02-23T13:27:46.928Z,17.50
2023-02-23T13:32:49.424Z,17.34
2023-02-23T13:38:31.538Z,17.25
2023-02-23T13:43:47.463Z,17.16
2023-02-23T13:49:02.994Z,16.98
2023-02-23T13:54:14.755Z,16.89
2023-02-23T13:59:19.803Z,16.80
2023-02-23T14:04:27.766Z,16.72
2023-02-23T14:09:47.519Z,16.64
2023-02-23T14:14:49.609Z,16.59
2023-02-23T14:20:13.261Z,16.56
2023-02-23T14:25:30.232Z,16.48
2023-02-23T14:30:51.410Z,16.44
2023-02-23T14:35:54.620Z,16.36
2023-02-23T14:40:56.514Z,16.27
2023-02-23T14:46:01.326Z,16.25
2023-02-23T14:51:17.104Z,16.13
2023-02-23T14:56:21.193Z,15.97
2023-02-23T15:01:38.317Z,15.88
2023-02-23T15:06:47.061Z,15.74
2023-02-23T15:11:54.105Z,15.65
2023-02-23T15:16:56.729Z,15.58
2023-02-23T15:22:00.539Z,15.51
2023-02-23T15:27:02.283Z,15.40
2023-02-23T15:32:19.423Z,15.35
2023-02-23T15:37:34.096Z,15.32
2023-02-23T15:42:41.214Z,15.37
2023-02-23T15:47:43.234Z,15.36
2023-02-23T15:52:58.599Z,15.27
2023-02-23T15:58:02.069Z,15.17
2023-02-23T16:03:06.314Z,15.18
2023-02-23T16:08:23.144Z,15.19
2023-02-23T16:13:25.053Z,15.17
2023-02-23T16:18:36.422Z,15.16
2023-02-23T16:23:45.618Z,15.11
2023-02-23T16:28:47.425Z,15.04
2023-02-23T16:33:57.100Z,15.01
2023-02-23T16:39:00.256Z,14.96
2023-02-23T16:44:05.037Z,14.91
2023-02-23T16:49:24.294Z,14.89
2023-02-23T16:54:26.798Z,14.83
2023-02-23T16:59:30.255Z,14.74
2023-02-23T17:04:32.022Z,14.66
2023-02-23T17:09:33.802Z,14.59
2023-02-23T17:14:35.614Z,14.52
2023-02-23T17:19:37.440Z,14.50
2023-02-23T17:24:40.250Z,14.51
2023-02-23T17:29:42.567Z,14.48
2023-02-23T17:34:44.334Z,14.43
2023-02-23T17:39:49.726Z,14.38
2023-02-23T17:44:53.412Z,14.36
2023-02-23T17:49:55.220Z,14.33
2023-02-23T17:54:58.378Z,14.33
2023-02-23T18:00:01.150Z,14.31
2023-02-23T18:05:02.914Z,14.26
2023-02-23T18:10:06.250Z,14.04
2023-02-23T18:15:08.372Z,13.90
2023-02-23T18:20:16.242Z,13.97
2023-02-23T18:25:27.925Z,14.02
2023-02-23T18:30:29.827Z,14.03
2023-02-23T18:35:37.807Z,14.02
2023-02-23T18:40:40.335Z,13.89
2023-02-23T18:45:43.338Z,13.69
2023-02-23T18:50:45.094Z,13.59
2023-02-23T18:55:47.337Z,13.69
2023-02-23T19:00:49.116Z,13.78
2023-02-23T19:05:53.312Z,13.79
2023-02-23T19:10:55.171Z,13.73
2023-02-23T19:15:58.878Z,13.63
2023-02-23T19:21:00.634Z,13.61
2023-02-23T19:26:03.525Z,13.60
2023-02-23T19:31:11.728Z,13.52
2023-02-23T19:36:19.266Z,13.31
2023-02-23T19:41:21.706Z,13.19
2023-02-23T19:46:25.661Z,13.17
2023-02-23T19:51:28.063Z,13.08
2023-02-23T19:56:30.329Z,13.04
2023-02-23T20:01:32.381Z,12.94
2023-02-23T20:06:39.523Z,12.88
2023-02-23T20:11:42.660Z,12.85
2023-02-23T20:16:44.632Z,12.88
2023-02-23T20:21:46.503Z,12.88
2023-02-23T20:26:48.747Z,12.85
2023-02-23T20:31:51.979Z,12.94
2023-02-23T20:36:55.732Z,12.82
2023-02-23T20:41:57.486Z,12.79
2023-02-23T20:47:00.823Z,12.73
2023-02-23T20:52:03.347Z,12.68
2023-02-23T20:57:08.266Z,12.66
2023-02-23T21:02:13.778Z,12.54
2023-02-23T21:07:15.816Z,12.58
2023-02-23T21:12:17.558Z,12.48
2023-02-23T21:17:19.395Z,12.34
2023-02-23T21:22:21.221Z,12.31
2023-02-23T21:27:23.948Z,12.31
2023-02-23T21:32:27.160Z,12.37
2023-02-23T21:37:29.007Z,12.39
2023-02-23T21:42:31.097Z,12.47
2023-02-23T21:47:37.374Z,12.64
2023-02-23T21:52:43.384Z,12.72
2023-02-23T21:57:45.212Z,12.77
2023-02-23T22:02:47.126Z,12.69
2023-02-23T22:07:51.010Z,12.60
2023-02-23T22:12:56.375Z,12.55
2023-02-23T22:17:58.209Z,12.58
2023-02-23T22:22:59.965Z,12.53
2023-02-23T22:28:02.022Z,12.42
2023-02-23T22:33:03.889Z,12.31
2023-02-23T22:38:05.787Z,12.24
2023-02-23T22:43:08.929Z,12.21
2023-02-23T22:48:10.727Z,12.14
2023-02-23T22:53:12.470Z,12.01
2023-02-23T22:58:15.269Z,11.89
2023-02-23T23:03:17.032Z,11.84
2023-02-23T23:08:18.833Z,11.81
2023-02-23T23:13:20.600Z,11.69
2023-02-23T23:18:24.633Z,11.69
2023-02-23T23:23:26.536Z,11.68
2023-02-23T23:28:28.688Z,11.55
2023-02-23T23:33:30.792Z,11.56
2023-02-23T23:38:34.132Z,11.55
2023-02-23T23:43:37.331Z,11.58
2023-02-23T23:48:39.411Z,11.47
2023-02-23T23:53:42.421Z,11.35
2023-02-23T23:58:44.640Z,11.31
